Terminal Aerodrome Forecast
Issued by NWS Wilmington, OH

Home | Current Version | Previous Version | Text Only | Print | Product List | Glossary On
Versions: 1 2 3 4 5 6 7 8 9 10 11 12 13 14 15 16 17 18 19 20 21
000
FTUS41 KILN 040500
TAFCVG
TAF
KCVG 040520Z 0406/0512 18005KT P6SM FEW200
     FM041500 22008G16KT P6SM SCT050 BKN150
     FM042300 21007KT P6SM BKN060 BKN250=

USA.gov is the U.S. government's official web portal to all federal, state and local government web resources and services.